sim
Sign-in with your pilot id or email,
or register
Callsign
Passwort

Schedule Details

Flight Number: OEO1787
Departure: Santorini Thira National Airport (LGSR) at 16:00
Arrival: Munich Airport (EDDM) at 19:00

Weather Information
Getting current METAR information for LGSR 210620Z 34018KT 9999 SCT025 23/17 Q1014
Getting current METAR information for EDDM 210620Z 00000KT CAVOK 09/09 Q1017 BECMG 09005KT

Schedule Frequency

Route Map